createdAt,value
2019-03-23T00:02:22.395Z,41.17
2019-03-23T00:04:51.041Z,43.97
2019-03-23T00:07:19.696Z,41.40
2019-03-23T00:09:48.088Z,39.30
2019-03-23T00:12:17.455Z,42.40
2019-03-23T00:14:46.247Z,43.97
2019-03-23T00:17:15.328Z,40.37
2019-03-23T00:19:44.125Z,42.73
2019-03-23T00:22:12.748Z,40.07
2019-03-23T00:24:41.151Z,40.80
2019-03-23T00:27:09.540Z,39.70
2019-03-23T00:29:37.940Z,38.97
2019-03-23T00:32:06.571Z,37.00
2019-03-23T00:34:34.978Z,36.87
2019-03-23T00:37:03.362Z,36.20
2019-03-23T00:39:32.055Z,38.13
2019-03-23T00:42:00.504Z,35.03
2019-03-23T00:44:29.132Z,39.43
2019-03-23T00:46:57.783Z,37.30
2019-03-23T00:49:26.170Z,37.00
2019-03-23T00:51:54.555Z,36.87
2019-03-23T00:54:23.017Z,37.47
2019-03-23T00:56:51.403Z,37.60
2019-03-23T00:59:19.800Z,37.60
2019-03-23T01:01:48.514Z,35.30
2019-03-23T01:04:17.152Z,37.67
2019-03-23T01:06:52.014Z,37.30
2019-03-23T01:09:16.119Z,36.17
2019-03-23T01:11:44.518Z,37.37
2019-03-23T01:14:13.170Z,37.73
2019-03-23T01:16:41.594Z,37.13
2019-03-23T01:19:10.211Z,38.63
2019-03-23T01:21:38.855Z,38.35
2019-03-23T01:24:07.251Z,35.73
2019-03-23T01:26:35.700Z,35.83
2019-03-23T01:29:04.100Z,37.00
2019-03-23T01:31:32.720Z,37.60
2019-03-23T01:34:01.340Z,37.93
2019-03-23T01:36:29.975Z,34.40
2019-03-23T01:38:58.364Z,36.00
2019-03-23T01:41:26.821Z,38.50
2019-03-23T01:43:55.204Z,34.23
2019-03-23T01:46:23.611Z,36.20
2019-03-23T01:48:52.243Z,35.33
2019-03-23T01:51:20.629Z,37.53
2019-03-23T01:53:49.028Z,37.60
2019-03-23T01:56:17.433Z,40.27
2019-03-23T01:58:46.073Z,42.70
2019-03-23T02:01:14.720Z,39.40
2019-03-23T02:03:43.352Z,43.33
2019-03-23T02:06:11.995Z,44.20
2019-03-23T02:08:40.621Z,42.50
2019-03-23T02:11:09.024Z,42.10
2019-03-23T02:13:37.416Z,43.17
2019-03-23T02:16:05.882Z,41.77
2019-03-23T02:18:34.277Z,41.50
2019-03-23T02:21:02.683Z,43.23
2019-03-23T02:23:31.317Z,44.10
2019-03-23T02:25:59.952Z,44.47
2019-03-23T02:28:28.342Z,40.90
2019-03-23T02:30:56.796Z,43.40
2019-03-23T02:33:25.438Z,44.10
2019-03-23T02:35:53.842Z,43.47
2019-03-23T02:38:22.228Z,44.03
2019-03-23T02:40:50.887Z,44.47
2019-03-23T02:43:19.320Z,41.80
2019-03-23T02:45:47.969Z,45.07
2019-03-23T02:48:16.363Z,43.00
2019-03-23T02:50:45.005Z,43.45
2019-03-23T02:53:13.400Z,45.30
2019-03-23T02:55:41.828Z,43.87
2019-03-23T02:58:10.224Z,43.55
2019-03-23T03:00:38.622Z,42.73
2019-03-23T03:03:07.262Z,44.17
2019-03-23T03:05:35.907Z,45.23
2019-03-23T03:08:04.314Z,45.33
2019-03-23T03:10:38.741Z,42.78
2019-03-23T03:13:07.496Z,45.83
2019-03-23T03:15:36.198Z,44.87
2019-03-23T03:18:06.282Z,43.55
2019-03-23T03:20:35.107Z,44.60
2019-03-23T03:23:03.810Z,43.15
2019-03-23T03:25:32.205Z,43.37
2019-03-23T03:28:00.612Z,42.55
2019-03-23T03:30:29.287Z,42.80
2019-03-23T03:32:57.875Z,45.03
2019-03-23T03:35:26.520Z,45.45
2019-03-23T03:37:56.894Z,44.23
2019-03-23T03:40:25.288Z,43.78
2019-03-23T03:42:53.686Z,43.15
2019-03-23T03:45:24.864Z,43.37
2019-03-23T03:47:53.311Z,43.60
2019-03-23T03:50:21.780Z,43.35
2019-03-23T03:52:50.181Z,41.30
2019-03-23T03:55:18.593Z,43.60
2019-03-23T03:57:47.253Z,42.35
2019-03-23T04:00:15.970Z,39.95
2019-03-23T04:02:44.377Z,44.27
2019-03-23T04:05:12.853Z,41.83
2019-03-23T04:07:41.483Z,44.27
2019-03-23T04:10:11.073Z,42.48
2019-03-23T04:12:39.540Z,44.13
2019-03-23T04:15:09.496Z,44.08
2019-03-23T04:17:37.883Z,40.28
2019-03-23T04:20:07.197Z,43.10
2019-03-23T04:22:35.813Z,44.67
2019-03-23T04:25:07.025Z,43.10
2019-03-23T04:27:35.670Z,41.60
2019-03-23T04:30:06.258Z,44.90
2019-03-23T04:32:35.048Z,41.95
2019-03-23T04:35:04.555Z,43.25
2019-03-23T04:37:32.948Z,42.70
2019-03-23T04:40:01.594Z,44.38
2019-03-23T04:42:30.224Z,43.40
2019-03-23T04:44:58.877Z,44.33
2019-03-23T04:47:27.528Z,45.55
2019-03-23T04:49:56.166Z,44.13
2019-03-23T04:52:24.559Z,42.95
2019-03-23T04:54:52.972Z,45.05
2019-03-23T04:57:21.370Z,46.55
2019-03-23T04:59:50.085Z,43.23
2019-03-23T05:02:18.730Z,42.65
2019-03-23T05:04:47.371Z,42.75
2019-03-23T05:07:16.014Z,45.80
2019-03-23T05:09:44.416Z,43.20
2019-03-23T05:12:13.060Z,44.18
2019-03-23T05:14:41.511Z,43.35
2019-03-23T05:17:10.108Z,43.25
2019-03-23T05:19:38.756Z,42.90
2019-03-23T05:22:07.392Z,44.03
2019-03-23T05:24:36.029Z,42.05
2019-03-23T05:27:04.430Z,43.10
2019-03-23T05:29:32.886Z,44.77
2019-03-23T05:32:01.284Z,44.03
2019-03-23T05:34:29.695Z,42.88
2019-03-23T05:36:58.090Z,42.75
2019-03-23T05:39:26.614Z,42.67
2019-03-23T05:41:55.250Z,41.37
2019-03-23T05:44:23.679Z,44.10
2019-03-23T05:46:54.237Z,42.95
2019-03-23T05:49:22.440Z,42.98
2019-03-23T05:51:50.831Z,41.73
2019-03-23T05:54:19.244Z,40.43
2019-03-23T05:56:47.637Z,43.23
2019-03-23T05:59:16.043Z,44.88
2019-03-23T06:01:44.677Z,41.85
2019-03-23T06:04:13.089Z,44.00
2019-03-23T06:06:41.479Z,41.23
2019-03-23T06:09:09.884Z,41.98
2019-03-23T06:11:38.292Z,41.63
2019-03-23T06:14:06.747Z,43.10
2019-03-23T06:16:35.211Z,42.33
2019-03-23T06:19:03.603Z,39.98
2019-03-23T06:21:32.008Z,40.60
2019-03-23T06:24:00.644Z,42.00
2019-03-23T06:26:29.319Z,41.73
2019-03-23T06:28:57.712Z,42.05
2019-03-23T06:31:26.333Z,41.37
2019-03-23T06:33:54.987Z,43.33
2019-03-23T06:36:23.386Z,38.95
2019-03-23T06:38:51.774Z,39.10
2019-03-23T06:41:20.431Z,38.17
2019-03-23T06:43:48.823Z,39.27
2019-03-23T06:46:17.454Z,40.52
2019-03-23T06:48:45.862Z,39.83
2019-03-23T06:51:14.475Z,39.53
2019-03-23T06:53:43.107Z,39.63
2019-03-23T06:56:11.746Z,40.07
2019-03-23T06:58:40.128Z,39.53
2019-03-23T07:01:08.511Z,40.93
2019-03-23T07:03:36.907Z,41.30
2019-03-23T07:06:05.290Z,38.90
2019-03-23T07:08:33.675Z,39.30
2019-03-23T07:11:02.327Z,41.50
2019-03-23T07:13:30.706Z,41.47
2019-03-23T07:15:59.088Z,39.30
2019-03-23T07:18:27.490Z,38.40
2019-03-23T07:20:56.109Z,39.40
2019-03-23T07:23:24.729Z,41.47
2019-03-23T07:25:53.365Z,38.47
2019-03-23T07:28:21.745Z,40.20
2019-03-23T07:30:50.127Z,38.77
2019-03-23T07:33:18.529Z,39.53
2019-03-23T07:35:47.223Z,39.70
2019-03-23T07:38:15.609Z,39.77
2019-03-23T07:40:44.243Z,40.97
2019-03-23T07:43:12.863Z,37.57
2019-03-23T07:45:41.246Z,39.60
2019-03-23T07:48:09.649Z,42.13
2019-03-23T07:50:38.038Z,40.87
2019-03-23T07:53:06.738Z,40.47
2019-03-23T07:55:35.138Z,39.97
2019-03-23T07:58:03.762Z,39.97
2019-03-23T08:00:32.196Z,39.90
2019-03-23T08:03:00.594Z,40.37
2019-03-23T08:05:28.978Z,39.90
2019-03-23T08:07:57.358Z,40.70
2019-03-23T08:10:29.948Z,40.50
2019-03-23T08:12:58.323Z,38.57
2019-03-23T08:15:27.022Z,40.87
2019-03-23T08:17:55.880Z,40.97
2019-03-23T08:20:24.811Z,41.57
2019-03-23T08:22:54.262Z,41.33
2019-03-23T08:25:22.900Z,41.80
2019-03-23T08:27:51.290Z,40.53
2019-03-23T08:30:19.661Z,39.87
2019-03-23T08:32:48.310Z,41.93
2019-03-23T08:35:16.922Z,38.60
2019-03-23T08:37:45.548Z,38.20
2019-03-23T08:40:14.015Z,37.30
2019-03-23T08:42:42.462Z,39.30
2019-03-23T08:45:11.152Z,39.53
2019-03-23T08:47:39.800Z,40.70
2019-03-23T08:50:08.254Z,39.87
2019-03-23T08:52:36.634Z,37.87
2019-03-23T08:55:06.271Z,41.27
2019-03-23T08:57:34.722Z,39.40
2019-03-23T09:00:03.345Z,39.20
2019-03-23T09:02:31.748Z,39.33
2019-03-23T09:05:00.389Z,38.00
2019-03-23T09:07:28.738Z,39.70
2019-03-23T09:09:59.443Z,40.43
2019-03-23T09:12:27.494Z,39.97
2019-03-23T09:14:56.111Z,40.73
2019-03-23T09:17:24.743Z,39.87
2019-03-23T09:19:53.132Z,39.17
2019-03-23T09:22:21.763Z,39.60
2019-03-23T09:24:50.405Z,38.27
2019-03-23T09:27:19.026Z,38.90
2019-03-23T09:29:47.417Z,36.33
2019-03-23T09:32:16.067Z,40.00
2019-03-23T09:34:44.696Z,36.93
2019-03-23T09:37:13.329Z,36.07
2019-03-23T09:39:41.972Z,37.70
2019-03-23T09:42:10.364Z,38.10
2019-03-23T09:44:38.998Z,38.90
2019-03-23T09:47:07.639Z,36.80
2019-03-23T09:49:36.259Z,37.83
2019-03-23T09:52:04.646Z,38.00
2019-03-23T09:54:33.285Z,36.23
2019-03-23T09:57:01.667Z,38.90
2019-03-23T09:59:30.290Z,38.53
2019-03-23T10:01:58.693Z,37.50
2019-03-23T10:04:27.332Z,37.90
2019-03-23T10:06:55.718Z,36.13
2019-03-23T10:09:24.125Z,34.63
2019-03-23T10:11:52.509Z,37.10
2019-03-23T10:14:20.891Z,36.50
2019-03-23T10:16:49.297Z,40.27
2019-03-23T10:19:17.689Z,39.33
2019-03-23T10:21:46.079Z,36.40
2019-03-23T10:24:14.710Z,38.37
2019-03-23T10:26:43.334Z,38.63
2019-03-23T10:29:11.729Z,39.63
2019-03-23T10:31:40.371Z,37.40
2019-03-23T10:34:09.079Z,39.13
2019-03-23T10:36:37.467Z,40.30
2019-03-23T10:39:06.852Z,38.20
2019-03-23T10:41:37.572Z,40.60
2019-03-23T10:44:05.732Z,37.80
2019-03-23T10:46:34.356Z,37.20
2019-03-23T10:49:02.989Z,37.97
2019-03-23T10:51:31.624Z,36.43
2019-03-23T10:54:00.254Z,35.87
2019-03-23T10:56:28.660Z,34.90
2019-03-23T10:58:57.046Z,35.07
2019-03-23T11:01:25.669Z,36.17
2019-03-23T11:03:54.069Z,33.37
2019-03-23T11:06:22.455Z,35.00
2019-03-23T11:08:50.861Z,33.77
2019-03-23T11:11:19.248Z,33.50
2019-03-23T11:13:47.632Z,35.47
2019-03-23T11:16:16.269Z,33.30
2019-03-23T11:18:44.898Z,32.20
2019-03-23T11:21:13.300Z,34.67
2019-03-23T11:23:41.924Z,33.90
2019-03-23T11:26:10.543Z,35.27
2019-03-23T11:28:38.944Z,36.43
2019-03-23T11:31:07.334Z,36.83
2019-03-23T11:33:35.739Z,36.83
2019-03-23T11:36:04.377Z,37.03
2019-03-23T11:38:32.779Z,37.40
2019-03-23T11:41:01.164Z,36.43
2019-03-23T11:43:29.800Z,35.47
2019-03-23T11:45:58.196Z,37.20
2019-03-23T11:48:26.641Z,35.03
2019-03-23T11:50:55.044Z,35.20
2019-03-23T11:53:23.669Z,36.00
2019-03-23T11:55:52.291Z,35.80
2019-03-23T11:58:20.927Z,37.27
2019-03-23T12:00:49.318Z,36.27
2019-03-23T12:03:17.962Z,37.10
2019-03-23T12:05:46.591Z,34.50
2019-03-23T12:08:15.217Z,38.33
2019-03-23T12:10:43.864Z,35.40
2019-03-23T12:13:12.260Z,38.53
2019-03-23T12:15:40.891Z,36.30
2019-03-23T12:18:09.517Z,38.70
2019-03-23T12:20:37.909Z,35.37
2019-03-23T12:23:06.303Z,35.40
2019-03-23T12:25:34.686Z,36.33
2019-03-23T12:28:03.090Z,37.70
2019-03-23T12:30:31.480Z,36.77
2019-03-23T12:32:59.877Z,38.07
2019-03-23T12:35:28.280Z,35.40
2019-03-23T12:37:56.668Z,33.67
2019-03-23T12:40:25.078Z,35.63
2019-03-23T12:42:53.472Z,36.20
2019-03-23T12:45:21.856Z,35.77
2019-03-23T12:47:50.258Z,36.87
2019-03-23T12:50:18.648Z,36.37
2019-03-23T12:52:47.055Z,37.03
2019-03-23T12:55:15.677Z,34.37
2019-03-23T12:57:44.070Z,33.83
2019-03-23T13:00:14.898Z,34.27
2019-03-23T13:02:43.353Z,32.40
2019-03-23T13:05:12.128Z,34.00
2019-03-23T13:07:40.566Z,34.73
2019-03-23T13:10:13.472Z,34.00
2019-03-23T13:12:42.174Z,35.43
2019-03-23T13:15:16.032Z,35.30
2019-03-23T13:17:44.439Z,35.00
2019-03-23T13:20:13.461Z,34.97
2019-03-23T13:22:42.024Z,37.27
2019-03-23T13:25:10.894Z,33.10
2019-03-23T13:27:39.347Z,31.70
2019-03-23T13:30:10.786Z,32.73
2019-03-23T13:32:39.487Z,33.53
2019-03-23T13:35:08.172Z,32.60
2019-03-23T13:37:36.567Z,33.70
2019-03-23T13:40:07.465Z,33.80
2019-03-23T13:42:35.864Z,35.00
2019-03-23T13:45:07.028Z,34.80
2019-03-23T13:47:35.720Z,33.97
2019-03-23T13:50:05.511Z,33.80
2019-03-23T13:52:33.895Z,34.40
2019-03-23T13:55:02.300Z,34.00
2019-03-23T13:57:30.920Z,31.70
2019-03-23T13:59:59.547Z,32.67
2019-03-23T14:02:28.037Z,34.70
2019-03-23T14:04:56.435Z,31.80
2019-03-23T14:07:25.073Z,35.50
2019-03-23T14:09:53.695Z,34.67
2019-03-23T14:12:22.107Z,33.37
2019-03-23T14:14:50.755Z,32.10
2019-03-23T14:17:19.380Z,33.90
2019-03-23T14:19:48.013Z,34.57
2019-03-23T14:22:16.708Z,33.53
2019-03-23T14:24:45.102Z,33.13
2019-03-23T14:27:13.499Z,34.23
2019-03-23T14:29:42.128Z,30.50
2019-03-23T14:32:10.772Z,35.40
2019-03-23T14:34:39.409Z,33.87
2019-03-23T14:37:07.952Z,33.10
2019-03-23T14:39:36.349Z,31.40
2019-03-23T14:42:05.360Z,32.77
2019-03-23T14:44:33.758Z,34.33
2019-03-23T14:47:02.195Z,33.87
2019-03-23T14:49:30.822Z,32.53
2019-03-23T14:51:59.482Z,33.47
2019-03-23T14:54:28.117Z,32.80
2019-03-23T14:56:56.522Z,31.87
2019-03-23T14:59:25.146Z,34.00
2019-03-23T15:01:53.773Z,33.40
2019-03-23T15:04:22.183Z,35.80
2019-03-23T15:06:50.568Z,33.10
2019-03-23T15:09:18.979Z,34.93
2019-03-23T15:11:47.972Z,35.60
2019-03-23T15:14:17.186Z,34.90
2019-03-23T15:16:45.833Z,34.83
2019-03-23T15:19:15.686Z,34.33
2019-03-23T15:21:44.363Z,34.70
2019-03-23T15:24:12.754Z,35.50
2019-03-23T15:26:41.142Z,36.73
2019-03-23T15:29:09.535Z,37.63
2019-03-23T15:31:37.923Z,38.17
2019-03-23T15:34:06.325Z,38.20
2019-03-23T15:36:34.710Z,35.40
2019-03-23T15:39:04.367Z,34.57
2019-03-23T15:41:32.771Z,35.80
2019-03-23T15:44:01.149Z,34.70
2019-03-23T15:46:29.562Z,38.63
2019-03-23T15:48:58.188Z,34.37
2019-03-23T15:51:26.646Z,34.73
2019-03-23T15:53:55.283Z,35.50
2019-03-23T15:56:23.671Z,36.30
2019-03-23T15:58:52.394Z,35.57
2019-03-23T16:01:20.861Z,36.80
2019-03-23T16:03:49.243Z,36.67
2019-03-23T16:06:17.872Z,34.13
2019-03-23T16:08:46.260Z,38.90
2019-03-23T16:11:14.663Z,36.13
2019-03-23T16:13:43.283Z,36.57
2019-03-23T16:16:11.677Z,36.57
2019-03-23T16:18:40.074Z,38.60
2019-03-23T16:21:08.461Z,38.60
2019-03-23T16:23:36.862Z,38.03
2019-03-23T16:26:05.247Z,36.23
2019-03-23T16:28:33.633Z,36.83
2019-03-23T16:31:02.030Z,34.37
2019-03-23T16:33:30.417Z,34.90
2019-03-23T16:35:59.065Z,35.30
2019-03-23T16:38:27.452Z,35.77
2019-03-23T16:40:55.835Z,34.80
2019-03-23T16:43:24.467Z,38.00
2019-03-23T16:45:53.265Z,38.47
2019-03-23T16:48:21.674Z,41.87
2019-03-23T16:50:50.294Z,36.83
2019-03-23T16:53:18.683Z,36.60
2019-03-23T16:55:47.311Z,36.00
2019-03-23T16:58:16.565Z,36.20
2019-03-23T17:00:45.151Z,35.60
2019-03-23T17:03:13.808Z,38.03
2019-03-23T17:05:42.506Z,42.13
2019-03-23T17:08:11.153Z,40.80
2019-03-23T17:10:39.785Z,39.40
2019-03-23T17:13:08.195Z,41.00
2019-03-23T17:15:36.657Z,45.53
2019-03-23T17:18:05.371Z,42.63
2019-03-23T17:20:33.765Z,51.27
2019-03-23T17:23:02.158Z,44.03
2019-03-23T17:25:30.876Z,42.90
2019-03-23T17:27:59.509Z,44.93
2019-03-23T17:30:28.141Z,42.90
2019-03-23T17:32:56.545Z,45.90
2019-03-23T17:35:25.269Z,42.90
2019-03-23T17:37:53.663Z,43.20
2019-03-23T17:40:22.056Z,44.70
2019-03-23T17:42:50.468Z,47.03
2019-03-23T17:45:18.874Z,47.40
2019-03-23T17:47:47.535Z,42.80
2019-03-23T17:50:15.928Z,44.23
2019-03-23T17:52:44.650Z,44.97
2019-03-23T17:55:13.229Z,43.53
2019-03-23T17:57:41.623Z,40.73
2019-03-23T18:00:11.341Z,42.90
2019-03-23T18:02:39.801Z,41.50
2019-03-23T18:05:09.172Z,45.60
2019-03-23T18:07:37.650Z,46.97
2019-03-23T18:10:08.816Z,49.93
2019-03-23T18:12:37.219Z,42.80
2019-03-23T18:15:07.348Z,44.80
2019-03-23T18:17:35.782Z,43.10
2019-03-23T18:20:05.265Z,43.50
2019-03-23T18:22:33.849Z,44.57
2019-03-23T18:25:02.304Z,39.07
2019-03-23T18:27:30.928Z,42.30
2019-03-23T18:29:59.567Z,41.17
2019-03-23T18:32:28.191Z,42.70
2019-03-23T18:34:56.629Z,40.90
2019-03-23T18:37:25.009Z,43.80
2019-03-23T18:39:53.636Z,46.90
2019-03-23T18:42:22.043Z,46.50
2019-03-23T18:44:50.681Z,52.27
2019-03-23T18:47:19.318Z,49.40
2019-03-23T18:49:47.723Z,53.23
2019-03-23T18:52:16.118Z,50.37
2019-03-23T18:54:44.753Z,52.33
2019-03-23T18:57:13.160Z,45.90
2019-03-23T18:59:41.558Z,46.47
2019-03-23T19:02:10.176Z,47.70
2019-03-23T19:04:38.580Z,42.10
2019-03-23T19:07:07.226Z,41.37
2019-03-23T19:09:35.614Z,43.87
2019-03-23T19:12:04.024Z,42.93
2019-03-23T19:14:32.413Z,44.47
2019-03-23T19:17:01.058Z,41.30
2019-03-23T19:19:29.470Z,44.70
2019-03-23T19:21:57.855Z,42.37
2019-03-23T19:24:26.524Z,39.10
2019-03-23T19:26:55.164Z,41.47
2019-03-23T19:29:23.560Z,41.67
2019-03-23T19:31:52.185Z,42.03
2019-03-23T19:34:20.907Z,42.03
2019-03-23T19:36:49.292Z,39.60
2019-03-23T19:39:17.696Z,39.53
2019-03-23T19:41:46.344Z,40.10
2019-03-23T19:44:14.863Z,40.80
2019-03-23T19:46:43.318Z,41.10
2019-03-23T19:49:11.724Z,44.33
2019-03-23T19:51:40.373Z,43.03
2019-03-23T19:54:08.762Z,40.23
2019-03-23T19:56:37.187Z,38.17
2019-03-23T19:59:05.569Z,40.37
2019-03-23T20:01:34.017Z,45.23
2019-03-23T20:04:02.659Z,40.20
2019-03-23T20:06:31.296Z,41.53
2019-03-23T20:08:59.770Z,44.30
2019-03-23T20:11:28.498Z,43.43
2019-03-23T20:13:58.964Z,44.10
2019-03-23T20:16:27.333Z,43.80
2019-03-23T20:18:55.865Z,42.20
2019-03-23T20:21:24.257Z,43.43
2019-03-23T20:23:52.891Z,46.20
2019-03-23T20:26:21.301Z,44.47
2019-03-23T20:28:49.749Z,41.33
2019-03-23T20:31:18.169Z,44.00
2019-03-23T20:33:46.904Z,41.47
2019-03-23T20:36:15.385Z,45.73
2019-03-23T20:38:44.015Z,44.10
2019-03-23T20:41:12.430Z,44.67
2019-03-23T20:43:41.125Z,43.23
2019-03-23T20:46:09.513Z,46.63
2019-03-23T20:48:38.489Z,48.10
2019-03-23T20:51:07.125Z,48.60
2019-03-23T20:53:35.656Z,46.07
2019-03-23T20:56:10.145Z,48.00
2019-03-23T20:58:44.308Z,48.10
2019-03-23T21:01:12.934Z,50.50
2019-03-23T21:03:41.574Z,47.90
2019-03-23T21:06:12.531Z,51.20
2019-03-23T21:08:40.552Z,51.70
2019-03-23T21:11:09.904Z,48.83
2019-03-23T21:13:38.360Z,50.10
2019-03-23T21:16:09.023Z,48.10
2019-03-23T21:18:37.387Z,51.03
2019-03-23T21:21:06.688Z,53.77
2019-03-23T21:23:35.076Z,58.43
2019-03-23T21:26:03.491Z,54.47
2019-03-23T21:28:32.112Z,53.10
2019-03-23T21:31:00.572Z,53.03
2019-03-23T21:33:32.083Z,55.00
2019-03-23T21:36:01.301Z,57.30
2019-03-23T21:38:29.787Z,57.03
2019-03-23T21:40:58.281Z,57.03
2019-03-23T21:43:26.917Z,56.70
2019-03-23T21:45:55.557Z,57.70
2019-03-23T21:48:23.956Z,57.03
2019-03-23T21:50:52.353Z,58.23
2019-03-23T21:53:20.749Z,57.10
2019-03-23T21:55:49.393Z,60.10
2019-03-23T21:58:17.792Z,63.43
2019-03-23T22:00:46.192Z,61.77
2019-03-23T22:03:14.588Z,57.30
2019-03-23T22:05:43.220Z,58.60
2019-03-23T22:08:11.624Z,61.50
2019-03-23T22:10:40.012Z,60.73
2019-03-23T22:13:08.649Z,66.97
2019-03-23T22:15:37.056Z,68.67
2019-03-23T22:18:05.762Z,65.97
2019-03-23T22:20:34.154Z,65.10
2019-03-23T22:23:02.790Z,66.50
2019-03-23T22:25:31.194Z,68.53
2019-03-23T22:27:59.648Z,67.97
2019-03-23T22:30:28.062Z,68.20
2019-03-23T22:32:56.684Z,64.03
2019-03-23T22:35:25.330Z,70.60
2019-03-23T22:37:53.727Z,72.10
2019-03-23T22:40:22.127Z,71.67
2019-03-23T22:42:50.752Z,66.50
2019-03-23T22:45:19.335Z,70.03
2019-03-23T22:47:47.969Z,71.80
2019-03-23T22:50:16.374Z,75.63
2019-03-23T22:52:44.759Z,74.53
2019-03-23T22:55:13.393Z,72.97
2019-03-23T22:57:41.891Z,76.13
2019-03-23T23:00:17.449Z,73.30
2019-03-23T23:02:46.211Z,73.20
2019-03-23T23:05:14.918Z,72.37
2019-03-23T23:07:43.303Z,71.67
2019-03-23T23:10:12.195Z,75.97
2019-03-23T23:12:40.819Z,77.87
2019-03-23T23:15:09.606Z,74.83
2019-03-23T23:17:38.231Z,75.07
2019-03-23T23:20:07.804Z,76.83
2019-03-23T23:22:36.189Z,77.63
2019-03-23T23:25:07.269Z,75.23
2019-03-23T23:27:36.083Z,83.93
2019-03-23T23:30:07.464Z,75.70
2019-03-23T23:32:36.249Z,76.93
2019-03-23T23:35:08.821Z,76.90
2019-03-23T23:37:38.368Z,77.50
2019-03-23T23:40:07.771Z,85.90
2019-03-23T23:42:36.469Z,78.13
2019-03-23T23:45:15.373Z,80.90
2019-03-23T23:47:38.967Z,75.63
2019-03-23T23:50:09.407Z,78.03
2019-03-23T23:52:38.109Z,80.80
2019-03-23T23:55:07.157Z,75.63
2019-03-23T23:57:35.541Z,81.70
